Home > Products > Valid Products > TAF

000
FTUS41 KPBZ 310500
TAFLBE
TAF
KLBE 310520Z 3106/0106 VRB05KT P6SM BKN080
     FM311100 18005KT P6SM -RA OVC050
     FM311400 22010KT 4SM -RA OVC025
     FM311600 26012G22KT 4SM -SHRA OVC015
     FM312100 32013G25KT P6SM BKN025
     FM010200 33005KT P6SM BKN035=



000
FTUS41 KPBZ 310500
TAFBVI
TAF
KBVI 310520Z 3106/0106 VRB05KT P6SM BKN080
     FM310900 18005KT P6SM -RA OVC050
     FM311300 22010KT 4SM -RA OVC025
     FM311500 26012G22KT 4SM -SHRA OVC015
     FM311800 32013G25KT P6SM BKN025
     FM010200 33005KT P6SM BKN035
      AMD NOT SKED=



000
FTUS41 KPBZ 310500
TAFMGW
TAF
KMGW 310520Z 3106/0106 21006KT P6SM BKN080
     FM311400 22013G22KT P6SM -SHRA OVC050
     FM311600 26012G22KT 4SM -SHRA OVC030
     FM312100 32013G25KT P6SM BKN025
     FM010200 31012G20KT P6SM BKN035=



000
FTUS41 KPBZ 310500
TAFLBE
TAF
KLBE 310520Z 3106/0106 VRB05KT P6SM BKN080
     FM311100 18005KT P6SM -RA OVC050
     FM311400 22010KT 4SM -RA OVC025
     FM311600 26012G22KT 4SM -SHRA OVC015
     FM312100 32013G25KT P6SM BKN025
     FM010200 33005KT P6SM BKN035=



000
FTUS41 KPBZ 310500
TAFDUJ
TAF
KDUJ 310520Z 3106/0106 29006KT P6SM BKN060
     FM311000 VRB04KT 4SM -RASN OVC012
     FM311400 VRB05KT 2SM -RASN OVC006
     FM311800 27012KT P6SM BKN015
     FM010200 32006KT P6SM SCT025=



000
FTUS41 KPBZ 310500
TAFHLG
TAF
KHLG 310520Z 3106/0106 25007KT P6SM BKN080
     FM310900 21006KT 6SM -RA OVC050
     FM311300 22010KT 4SM -RA OVC025
     FM311500 26012G22KT 6SM -RA OVC015
     FM311900 32013G25KT P6SM BKN025
     FM010200 33005KT P6SM SCT035=



000
FTUS41 KPBZ 310500
TAFZZV
TAF
KZZV 310520Z 3106/0106 23006KT P6SM BKN070
     FM311700 24013G26KT P6SM OVC050
     FM312100 34012G22KT P6SM SCT040
     FM010000 32006KT P6SM SKC=



000
FTUS41 KPBZ 310500
TAFPIT
TAF
KPIT 310520Z 3106/0112 VRB05KT P6SM BKN080
     FM310900 18005KT P6SM -RA OVC050
     FM311300 22010KT 4SM -RA OVC025
     FM311500 26012G22KT 4SM -SHRA OVC015
     FM311900 32013G25KT P6SM BKN025
     FM010200 33005KT P6SM SCT035=



000
FTUS41 KPBZ 310500
TAFDUJ
TAF
KDUJ 310520Z 3106/0106 29006KT P6SM BKN060
     FM311000 VRB04KT 4SM -RASN OVC012
     FM311400 VRB05KT 2SM -RASN OVC006
     FM311800 27012KT P6SM BKN015
     FM010200 32006KT P6SM SCT025=



000
FTUS41 KPBZ 310500
TAFBVI
TAF
KBVI 310520Z 3106/0106 VRB05KT P6SM BKN080
     FM310900 18005KT P6SM -RA OVC050
     FM311300 22010KT 4SM -RA OVC025
     FM311500 26012G22KT 4SM -SHRA OVC015
     FM311800 32013G25KT P6SM BKN025
     FM010200 33005KT P6SM BKN035
      AMD NOT SKED=



000
FTUS41 KPBZ 310500
TAFAGC
TAF
KAGC 310520Z 3106/0106 VRB05KT P6SM BKN080
     FM310900 18005KT P6SM -RA OVC050
     FM311300 22010KT 4SM -RA OVC025
     FM311500 26012G22KT 4SM -SHRA OVC015
     FM311900 32013G25KT P6SM BKN025
     FM010200 33005KT P6SM SCT035=



000
FTUS41 KPBZ 310500
TAFMGW
TAF
KMGW 310520Z 3106/0106 21006KT P6SM BKN080
     FM311400 22013G22KT P6SM -SHRA OVC050
     FM311600 26012G22KT 4SM -SHRA OVC030
     FM312100 32013G25KT P6SM BKN025
     FM010200 31012G20KT P6SM BKN035=



000
FTUS41 KPBZ 310500
TAFZZV
TAF
KZZV 310520Z 3106/0106 23006KT P6SM BKN070
     FM311700 24013G26KT P6SM OVC050
     FM312100 34012G22KT P6SM SCT040
     FM010000 32006KT P6SM SKC=



000
FTUS41 KPBZ 310500
TAFPIT
TAF
KPIT 310520Z 3106/0112 VRB05KT P6SM BKN080
     FM310900 18005KT P6SM -RA OVC050
     FM311300 22010KT 4SM -RA OVC025
     FM311500 26012G22KT 4SM -SHRA OVC015
     FM311900 32013G25KT P6SM BKN025
     FM010200 33005KT P6SM SCT035=



000
FTUS41 KPBZ 310500
TAFAGC
TAF
KAGC 310520Z 3106/0106 VRB05KT P6SM BKN080
     FM310900 18005KT P6SM -RA OVC050
     FM311300 22010KT 4SM -RA OVC025
     FM311500 26012G22KT 4SM -SHRA OVC015
     FM311900 32013G25KT P6SM BKN025
     FM010200 33005KT P6SM SCT035=



000
FTUS41 KPBZ 310500
TAFHLG
TAF
KHLG 310520Z 3106/0106 25007KT P6SM BKN080
     FM310900 21006KT 6SM -RA OVC050
     FM311300 22010KT 4SM -RA OVC025
     FM311500 26012G22KT 6SM -RA OVC015
     FM311900 32013G25KT P6SM BKN025
     FM010200 33005KT P6SM SCT035=



000
FTUS41 KPBZ 310200 AAB
TAFPIT
TAF AMD
KPIT 310232Z 3103/0106 25008KT P6SM BKN080
     FM310900 16006KT 6SM -RA BKN035
     FM311300 19010KT 6SM -RA OVC035
     FM311900 28012G22KT P6SM OVC025
     FM010000 33012G18KT P6SM SCT025=



000
FTUS41 KPBZ 310100 AAA
TAFDUJ
TAF AMD
KDUJ 310107Z 3101/3124 26010KT P6SM BKN060
     FM311000 VRB03KT 1SM -SN OVC006
     FM311400 VRB03KT 2SM -RASN OVC006
     FM312100 34012KT P6SM BKN015=



000
FTUS41 KPBZ 310100 AAA
TAFDUJ
TAF AMD
KDUJ 310107Z 3101/3124 26010KT P6SM BKN060
     FM311000 VRB03KT 1SM -SN OVC006
     FM311400 VRB03KT 2SM -RASN OVC006
     FM312100 34012KT P6SM BKN015=



000
FTUS41 KPBZ 310100 AAA
TAFBVI
TAF AMD
KBVI 310106Z 3101/3124 26005KT P6SM BKN080
     FM310800 16006KT 6SM -RA BKN030
     FM311300 19010KT 6SM -RA OVC030
     FM311900 28012G22KT P6SM OVC015
      AMD NOT SKED 3102/3112=



000
FTUS41 KPBZ 310100 AAA
TAFLBE
TAF AMD
KLBE 310106Z 3101/3124 26008KT P6SM BKN080
     FM311000 16006KT 6SM -RA BKN035
     FM311400 19010KT 6SM -RA OVC025
     FM312100 28012G22KT P6SM OVC015=



000
FTUS41 KPBZ 310100 AAA
TAFBVI
TAF AMD
KBVI 310106Z 3101/3124 26005KT P6SM BKN080
     FM310800 16006KT 6SM -RA BKN030
     FM311300 19010KT 6SM -RA OVC030
     FM311900 28012G22KT P6SM OVC015
      AMD NOT SKED 3102/3112=



000
FTUS41 KPBZ 310100 AAA
TAFHLG
TAF AMD
KHLG 310106Z 3101/3124 26005KT P6SM BKN080
     FM310900 16006KT 6SM -RA BKN035
     FM311300 19010KT 6SM -RA OVC035
     FM311900 28012G22KT P6SM OVC025=



000
FTUS41 KPBZ 310100 AAA
TAFHLG
TAF AMD
KHLG 310106Z 3101/3124 26005KT P6SM BKN080
     FM310900 16006KT 6SM -RA BKN035
     FM311300 19010KT 6SM -RA OVC035
     FM311900 28012G22KT P6SM OVC025=



000
FTUS41 KPBZ 310100 AAA
TAFLBE
TAF AMD
KLBE 310106Z 3101/3124 26008KT P6SM BKN080
     FM311000 16006KT 6SM -RA BKN035
     FM311400 19010KT 6SM -RA OVC025
     FM312100 28012G22KT P6SM OVC015=



000
FTUS41 KPBZ 310100 AAA
TAFPIT
TAF AMD
KPIT 310104Z 3101/0106 27008KT P6SM BKN080
     FM310900 16006KT 6SM -RA BKN035
     FM311300 19010KT 6SM -RA OVC035
     FM311900 28012G22KT P6SM OVC025
     FM010000 33012G18KT P6SM SCT025=



000
FTUS41 KPBZ 310100 AAA
TAFPIT
TAF AMD
KPIT 310104Z 3101/0106 27008KT P6SM BKN080
     FM310900 16006KT 6SM -RA BKN035
     FM311300 19010KT 6SM -RA OVC035
     FM311900 28012G22KT P6SM OVC025
     FM010000 33012G18KT P6SM SCT025=



000
FTUS41 KPBZ 302300
TAFMGW
TAF
KMGW 302323Z 3100/3124 27006KT P6SM BKN080
     FM311200 19008KT P6SM OVC080
     FM311400 22013G20KT 6SM -RA OVC035
     FM312200 31012G20KT P6SM OVC025=



000
FTUS41 KPBZ 302300
TAFHLG
TAF
KHLG 302323Z 3100/3124 27012G25KT P6SM BKN080
     FM310300 26005KT P6SM BKN080
     FM310900 16006KT 6SM -RA BKN035
     FM311300 19010KT 6SM -RA OVC035
     FM311900 28012G22KT P6SM OVC025=



000
FTUS41 KPBZ 302300
TAFAGC
TAF
KAGC 302323Z 3100/3124 27012G20KT P6SM BKN080
     FM310200 27008KT P6SM BKN080
     FM310900 16006KT 6SM -RA BKN035
     FM311300 19010KT 6SM -RA OVC035
     FM311900 28012G22KT P6SM OVC025=



000
FTUS41 KPBZ 302300
TAFZZV
TAF
KZZV 302323Z 3100/3124 27012G20KT P6SM BKN080
     FM310100 27006KT P6SM BKN080
     FM311700 24015G30KT P6SM OVC050
     FM312100 34012G18KT P6SM SCT050=



000
FTUS41 KPBZ 302300
TAFBVI
TAF
KBVI 302323Z 3100/3124 27012G20KT P6SM BKN080
     FM310200 26005KT P6SM BKN080
     FM310800 16006KT 6SM -RA BKN030
     FM311300 19010KT 6SM -RA OVC030
     FM311900 28012G22KT P6SM OVC015=



000
FTUS41 KPBZ 302300
TAFPIT
TAF
KPIT 302323Z 3100/0106 27012G20KT P6SM BKN080
     FM310200 27008KT P6SM BKN080
     FM310900 16006KT 6SM -RA BKN035
     FM311300 19010KT 6SM -RA OVC035
     FM311900 28012G22KT P6SM OVC025
     FM010000 33012G18KT P6SM SCT025=



000
FTUS41 KPBZ 302300
TAFLBE
TAF
KLBE 302323Z 3100/3124 27012G20KT P6SM BKN080
     FM310200 26005KT P6SM BKN080
     FM311000 16006KT 6SM -RA BKN035
     FM311400 19010KT 6SM -RA OVC025
     FM312100 28012G22KT P6SM OVC015=



000
FTUS41 KPBZ 302300
TAFDUJ
TAF
KDUJ 302323Z 3100/3124 27012G25KT P6SM BKN060
     FM310300 26005KT P6SM BKN060
     FM311000 VRB03KT 1SM -SN OVC006
     FM311400 VRB03KT 2SM -RASN OVC006
     FM312100 34012KT P6SM BKN015=



000
FTUS41 KPBZ 302300 AAA
TAFMGW
TAF AMD
KMGW 302300Z 3023/3118 26005KT P6SM BKN050
     FM311200 19008KT P6SM OVC050
     FM311600 22013G20KT P6SM -SHRA OVC030=



000
FTUS41 KPBZ 302300 AAA
TAFMGW
TAF AMD
KMGW 302300Z 3023/3118 26005KT P6SM BKN050
     FM311200 19008KT P6SM OVC050
     FM311600 22013G20KT P6SM -SHRA OVC030=



000
FTUS41 KPBZ 302200 AAA
TAFBVI
TAF AMD
KBVI 302258Z 3023/3118 28012G20KT P6SM BKN050
     FM311000 18006KT P6SM BKN035
     FM311400 22012G18KT P6SM -SHRA OVC025
     FM311700 28012G22KT P6SM -SHRA OVC015=



000
FTUS41 KPBZ 302200 AAA
TAFBVI
TAF AMD
KBVI 302258Z 3023/3118 28012G20KT P6SM BKN050
     FM311000 18006KT P6SM BKN035
     FM311400 22012G18KT P6SM -SHRA OVC025
     FM311700 28012G22KT P6SM -SHRA OVC015=



000
FTUS41 KPBZ 302000 AAA
TAFLBE
TAF AMD
KLBE 302056Z 3021/3118 27015G22KT P6SM BKN040
     FM310000 26005KT P6SM BKN050
     FM311000 18008KT P6SM BKN035
     FM311400 22015G25KT P6SM -SHRA OVC025=



000
FTUS41 KPBZ 302000 AAA
TAFPIT
TAF AMD
KPIT 302055Z 3021/3124 28015G30KT P6SM BKN050
     FM310100 26005KT P6SM BKN050
     FM311000 16006KT 6SM -RA BKN035
     FM311300 19010KT 6SM -RA OVC035
     FM311900 28012G22KT P6SM OVC025=



000
FTUS41 KPBZ 302000 AAA
TAFDUJ
TAF AMD
KDUJ 302027Z 3020/3118 27017G30KT P6SM SCT035 OVC050
     FM310000 26005KT P6SM BKN050
     FM311000 VRB04KT 2SM -SN OVC010
     FM311200 VRB03KT 1SM -SN OVC003
     FM311600 VRB03KT 2SM -SHRA OVC007=



000
FTUS41 KPBZ 301700
TAFLBE
TAF
KLBE 301720Z 3018/3118 26020G33KT P6SM BKN040
     FM310000 26005KT P6SM BKN050
     FM311000 18008KT P6SM BKN035
     FM311400 22015G25KT P6SM -SHRA OVC025=



000
FTUS41 KPBZ 301700
TAFDUJ
TAF
KDUJ 301720Z 3018/3118 27017G30KT P6SM SCT035 OVC050
      TEMPO 3020/3024 29020G39KT 5SM -SHRA OVC030
     FM310000 26005KT P6SM BKN050
     FM311000 VRB04KT 2SM -SN OVC010
     FM311200 VRB03KT 1SM -SN OVC003
     FM311600 VRB03KT 2SM -SHRA OVC007=



000
FTUS41 KPBZ 301700
TAFPIT
TAF
KPIT 301720Z 3018/3124 28018G28KT P6SM BKN045
     FM310000 26005KT P6SM BKN050
     FM311000 18006KT P6SM BKN035
     FM311400 22012G18KT P6SM -SHRA OVC025
     FM311800 28012G22KT P6SM -SHRA OVC015=



000
FTUS41 KPBZ 301700
TAFHLG
TAF
KHLG 301720Z 3018/3118 27015G30KT P6SM BKN050
     FM310000 26005KT P6SM BKN050
     FM311000 18006KT P6SM BKN035
     FM311400 22012G18KT P6SM -SHRA OVC025=



000
FTUS41 KPBZ 301700
TAFPIT
TAF
KPIT 301720Z 3018/3124 28018G28KT P6SM BKN045
     FM310000 26005KT P6SM BKN050
     FM311000 18006KT P6SM BKN035
     FM311400 22012G18KT P6SM -SHRA OVC025
     FM311800 28012G22KT P6SM -SHRA OVC015=



000
FTUS41 KPBZ 301700
TAFHLG
TAF
KHLG 301720Z 3018/3118 27015G30KT P6SM BKN050
     FM310000 26005KT P6SM BKN050
     FM311000 18006KT P6SM BKN035
     FM311400 22012G18KT P6SM -SHRA OVC025=



000
FTUS41 KPBZ 301700
TAFZZV
TAF
KZZV 301720Z 3018/3118 29014G24KT P6SM SCT045
     FM310000 25005KT P6SM SCT050
     FM310900 21008KT P6SM BKN050
     FM311500 23014G29KT P6SM -SHRA BKN025=



000
FTUS41 KPBZ 301700
TAFBVI
TAF
KBVI 301720Z 3018/3118 28015G30KT P6SM SCT035 OVC045
     FM310000 26005KT P6SM BKN050
     FM311000 18006KT P6SM BKN035
     FM311400 22012G18KT P6SM -SHRA OVC025
     FM311700 28012G22KT P6SM -SHRA OVC015=



000
FTUS41 KPBZ 301700
TAFMGW
TAF
KMGW 301720Z 3018/3118 26012G24KT P6SM SCT050
     FM310000 26005KT P6SM SCT050
     FM311200 19008KT P6SM OVC050
     FM311600 22013G20KT P6SM -SHRA OVC030=



000
FTUS41 KPBZ 301700
TAFLBE
TAF
KLBE 301720Z 3018/3118 26020G33KT P6SM BKN040
     FM310000 26005KT P6SM BKN050
     FM311000 18008KT P6SM BKN035
     FM311400 22015G25KT P6SM -SHRA OVC025=



000
FTUS41 KPBZ 301700
TAFAGC
TAF
KAGC 301720Z 3018/3118 29015G28KT P6SM FEW040 SCT050 BKN060
     FM310000 26005KT P6SM BKN050
     FM311000 18006KT P6SM BKN035
     FM311400 22012G18KT P6SM -SHRA OVC025=



000
FTUS41 KPBZ 301700
TAFMGW
TAF
KMGW 301720Z 3018/3118 26012G24KT P6SM SCT050
     FM310000 26005KT P6SM SCT050
     FM311200 19008KT P6SM OVC050
     FM311600 22013G20KT P6SM -SHRA OVC030=



000
FTUS41 KPBZ 301700
TAFAGC
TAF
KAGC 301720Z 3018/3118 29015G28KT P6SM FEW040 SCT050 BKN060
     FM310000 26005KT P6SM BKN050
     FM311000 18006KT P6SM BKN035
     FM311400 22012G18KT P6SM -SHRA OVC025=



000
FTUS41 KPBZ 301700
TAFZZV
TAF
KZZV 301720Z 3018/3118 29014G24KT P6SM SCT045
     FM310000 25005KT P6SM SCT050
     FM310900 21008KT P6SM BKN050
     FM311500 23014G29KT P6SM -SHRA BKN025=



000
FTUS41 KPBZ 301700
TAFBVI
TAF
KBVI 301720Z 3018/3118 28015G30KT P6SM SCT035 OVC045
     FM310000 26005KT P6SM BKN050
     FM311000 18006KT P6SM BKN035
     FM311400 22012G18KT P6SM -SHRA OVC025
     FM311700 28012G22KT P6SM -SHRA OVC015=



000
FTUS41 KPBZ 301400 AAA
TAFPIT
TAF AMD
KPIT 301455Z 3015/3118 28015G24KT P6SM BKN040
     FM310000 26005KT P6SM BKN050
     FM311000 23006KT P6SM BKN025=



000
FTUS41 KPBZ 301200 CCB
TAFLBE
TAF COR
KLBE 301202Z 3012/3112 25010KT P6SM BKN025 OVC045
     FM301300 25010G20KT P6SM SCT020 BKN035
     FM301500 28013G25KT P6SM BKN040
     FM310000 26005KT P6SM BKN050
     FM311100 23006KT P6SM BKN025=



000
FTUS41 KPBZ 301200 CCB
TAFLBE
TAF COR
KLBE 301202Z 3012/3112 25010KT P6SM BKN025 OVC045
     FM301300 25010G20KT P6SM SCT020 BKN035
     FM301500 28013G25KT P6SM BKN040
     FM310000 26005KT P6SM BKN050
     FM311100 23006KT P6SM BKN025=



000
FTUS41 KPBZ 301100 CCB
TAFDUJ
TAF COR
KDUJ 301157Z 3012/3112 26014KT P6SM FEW017 BKN027 OVC040
     FM301300 28010G20KT P6SM BKN025 OVC035
     FM301500 28013G25KT P6SM BKN035
      TEMPO 3020/3024 5SM -SHRA OVC020
     FM310000 26005KT P6SM BKN040=



000
FTUS41 KPBZ 301100 CCB
TAFDUJ
TAF COR
KDUJ 301157Z 3012/3112 26014KT P6SM FEW017 BKN027 OVC040
     FM301300 28010G20KT P6SM BKN025 OVC035
     FM301500 28013G25KT P6SM BKN035
      TEMPO 3020/3024 5SM -SHRA OVC020
     FM310000 26005KT P6SM BKN040=



000
FTUS41 KPBZ 301100 CCA
TAFMGW
TAF COR
KMGW 301129Z 3011/3112 20005KT P6SM -RA SCT010 BKN020 OVC025
     FM301300 24008G16KT P6SM BKN025
     FM301400 28013G25KT P6SM BKN040
     FM310000 26005KT P6SM BKN050=



000
FTUS41 KPBZ 301100 CCA
TAFMGW
TAF COR
KMGW 301129Z 3011/3112 20005KT P6SM -RA SCT010 BKN020 OVC025
     FM301300 24008G16KT P6SM BKN025
     FM301400 28013G25KT P6SM BKN040
     FM310000 26005KT P6SM BKN050=



000
FTUS41 KPBZ 301100 CCA
TAFDUJ
TAF COR
KDUJ 301125Z 3011/3112 26015G24KT P6SM SCT008 BKN014 OVC035
     FM301300 28010G20KT P6SM BKN025 OVC035
     FM301500 28013G25KT P6SM BKN035
      TEMPO 3020/3024 5SM -SHRA OVC020
     FM310000 26005KT P6SM BKN040=



000
FTUS41 KPBZ 301100 CCA
TAFDUJ
TAF COR
KDUJ 301125Z 3011/3112 26015G24KT P6SM SCT008 BKN014 OVC035
     FM301300 28010G20KT P6SM BKN025 OVC035
     FM301500 28013G25KT P6SM BKN035
      TEMPO 3020/3024 5SM -SHRA OVC020
     FM310000 26005KT P6SM BKN040=



000
FTUS41 KPBZ 301100 CCA
TAFLBE
TAF COR
KLBE 301122Z 3012/3112 23012G20KT P6SM BKN008 BKN020
     FM301300 25010G20KT P6SM SCT020 BKN035
     FM301500 28013G25KT P6SM BKN040
     FM310000 26005KT P6SM BKN050
     FM311100 23006KT P6SM BKN025=



000
FTUS41 KPBZ 301100 CCA
TAFLBE
TAF COR
KLBE 301122Z 3012/3112 23012G20KT P6SM BKN008 BKN020
     FM301300 25010G20KT P6SM SCT020 BKN035
     FM301500 28013G25KT P6SM BKN040
     FM310000 26005KT P6SM BKN050
     FM311100 23006KT P6SM BKN025=



000
FTUS41 KPBZ 301100
TAFDUJ
TAF
KDUJ 301121Z 3012/3112 26012G22KT P6SM BKN006 OVC013
     FM301300 28010G20KT P6SM BKN025 OVC035
     FM301500 28013G25KT P6SM BKN035
      TEMPO 3020/3024 5SM -SHRA OVC020
     FM310000 26005KT P6SM BKN040
     FM311000 23004KT 4SM -SHSN OVC012=



000
FTUS41 KPBZ 301100
TAFPIT
TAF
KPIT 301121Z 3012/3118 27010G20KT P6SM SCT020 BKN040
     FM301400 28013G25KT P6SM BKN045
     FM310000 26005KT P6SM BKN050
     FM311000 23006KT P6SM BKN025=



000
FTUS41 KPBZ 301100
TAFAGC
TAF
KAGC 301121Z 3012/3112 27010G20KT P6SM SCT020 BKN045
     FM301400 28013G25KT P6SM BKN045
     FM310000 26005KT P6SM BKN050
     FM311000 23006KT P6SM BKN025=



000
FTUS41 KPBZ 301100
TAFBVI
TAF
KBVI 301121Z 3012/3112 27010G20KT P6SM SCT020 BKN040
     FM301400 28013G25KT P6SM BKN040
     FM310000 26005KT P6SM BKN050
     FM310900 23006KT P6SM BKN025=



000
FTUS41 KPBZ 301100
TAFHLG
TAF
KHLG 301121Z 3012/3112 28010G20KT P6SM SCT020 BKN035
     FM301400 28013G25KT P6SM BKN040
     FM310000 26005KT P6SM BKN050=



000
FTUS41 KPBZ 301100
TAFLBE
TAF
KLBE 301121Z 3012/3112 23012G22KT 5SM -DZ BR BKN020
     FM301300 25010G20KT P6SM SCT020 BKN035
     FM301500 28013G25KT P6SM BKN040
     FM310000 26005KT P6SM BKN050
     FM311100 23006KT P6SM BKN025=



000
FTUS41 KPBZ 301100
TAFMGW
TAF
KMGW 301121Z 3012/3112 24008G16KT 5SM BR BKN005 OVC010
     FM301300 24008G16KT P6SM SCT010 BKN025
     FM301400 28013G25KT P6SM BKN040
     FM310000 26005KT P6SM BKN050=



000
FTUS41 KPBZ 301100
TAFZZV
TAF
KZZV 301121Z 3012/3112 28009G18KT P6SM FEW040
     FM301400 28013G25KT P6SM FEW040
     FM310000 26005KT P6SM BKN050=



000
FTUS41 KPBZ 301100
TAFHLG
TAF
KHLG 301121Z 3012/3112 28010G20KT P6SM SCT020 BKN035
     FM301400 28013G25KT P6SM BKN040
     FM310000 26005KT P6SM BKN050=



000
FTUS41 KPBZ 301100
TAFMGW
TAF
KMGW 301121Z 3012/3112 24008G16KT 5SM BR BKN005 OVC010
     FM301300 24008G16KT P6SM SCT010 BKN025
     FM301400 28013G25KT P6SM BKN040
     FM310000 26005KT P6SM BKN050=



000
FTUS41 KPBZ 301100
TAFZZV
TAF
KZZV 301121Z 3012/3112 28009G18KT P6SM FEW040
     FM301400 28013G25KT P6SM FEW040
     FM310000 26005KT P6SM BKN050=



000
FTUS41 KPBZ 301100
TAFBVI
TAF
KBVI 301121Z 3012/3112 27010G20KT P6SM SCT020 BKN040
     FM301400 28013G25KT P6SM BKN040
     FM310000 26005KT P6SM BKN050
     FM310900 23006KT P6SM BKN025=



000
FTUS41 KPBZ 301100
TAFLBE
TAF
KLBE 301121Z 3012/3112 23012G22KT 5SM -DZ BR BKN020
     FM301300 25010G20KT P6SM SCT020 BKN035
     FM301500 28013G25KT P6SM BKN040
     FM310000 26005KT P6SM BKN050
     FM311100 23006KT P6SM BKN025=



000
FTUS41 KPBZ 301100
TAFDUJ
TAF
KDUJ 301121Z 3012/3112 26012G22KT P6SM BKN006 OVC013
     FM301300 28010G20KT P6SM BKN025 OVC035
     FM301500 28013G25KT P6SM BKN035
      TEMPO 3020/3024 5SM -SHRA OVC020
     FM310000 26005KT P6SM BKN040
     FM311000 23004KT 4SM -SHSN OVC012=



000
FTUS41 KPBZ 301100
TAFAGC
TAF
KAGC 301121Z 3012/3112 27010G20KT P6SM SCT020 BKN045
     FM301400 28013G25KT P6SM BKN045
     FM310000 26005KT P6SM BKN050
     FM311000 23006KT P6SM BKN025=



000
FTUS41 KPBZ 301100
TAFPIT
TAF
KPIT 301121Z 3012/3118 27010G20KT P6SM SCT020 BKN040
     FM301400 28013G25KT P6SM BKN045
     FM310000 26005KT P6SM BKN050
     FM311000 23006KT P6SM BKN025=



000
FTUS41 KPBZ 301000 AAA
TAFLBE
TAF AMD
KLBE 301021Z 3010/3106 19007KT 4SM -DZ BR SCT008 OVC015
      TEMPO 3010/3012 1 3/4SM -RA BR BKN008
     FM301200 25012G22KT P6SM BKN025
     FM301400 27012G22KT P6SM BKN035
     FM310000 26005KT P6SM BKN050=



000
FTUS41 KPBZ 300900 AAB
TAFAGC
TAF AMD
KAGC 300924Z 3009/3106 24012G24KT P6SM -DZ OVC015
     FM301000 25008G16KT P6SM BKN025
     FM301300 27012G22KT P6SM BKN035
     FM310000 26005KT P6SM BKN050=



000
FTUS41 KPBZ 300900 AAC
TAFPIT
TAF AMD
KPIT 300923Z 3009/3112 24012G24KT P6SM -DZ OVC015
     FM301000 25008G16KT P6SM BKN025
     FM301300 27012G22KT P6SM BKN035
     FM310000 26005KT P6SM BKN050=



000
FTUS41 KPBZ 300900 AAB
TAFHLG
TAF AMD
KHLG 300920Z 3009/3106 24012G24KT P6SM BKN015
     FM301000 25012G22KT P6SM BKN025
     FM301200 27012G22KT P6SM BKN035
     FM310000 26005KT P6SM BKN050=



000
FTUS41 KPBZ 300900 AAB
TAFHLG
TAF AMD
KHLG 300920Z 3009/3106 24012G24KT P6SM BKN015
     FM301000 25012G22KT P6SM BKN025
     FM301200 27012G22KT P6SM BKN035
     FM310000 26005KT P6SM BKN050=



000
FTUS41 KPBZ 300800 AAB
TAFPIT
TAF AMD
KPIT 300856Z 3009/3112 26012G24KT P6SM BKN022
      TEMPO 3009/3010 5SM -DZ SCT010
     FM301300 27012G22KT P6SM SCT035
     FM310000 26005KT P6SM BKN050=



000
FTUS41 KPBZ 300800 AAA
TAFDUJ
TAF AMD
KDUJ 300846Z 3009/3106 24012G22KT P6SM SCT008 BKN015
      TEMPO 3009/3012 2SM -SHSN BKN008
     FM301200 27012KT P6SM BKN025
     FM301600 27012G22KT P6SM BKN035
     FM310000 25006KT P6SM BKN050=



000
FTUS41 KPBZ 300800 AAA
TAFMGW
TAF AMD
KMGW 300820Z 3008/3106 23010G18KT P6SM BKN017
      TEMPO 3009/3011 5SM -SHRASN
     FM301100 25010G18KT P6SM BKN025
     FM301400 27010G20KT P6SM BKN035
     FM310000 26005KT P6SM BKN050=



000
FTUS41 KPBZ 300800 AAA
TAFMGW
TAF AMD
KMGW 300820Z 3008/3106 23010G18KT P6SM BKN017
      TEMPO 3009/3011 5SM -SHRASN
     FM301100 25010G18KT P6SM BKN025
     FM301400 27010G20KT P6SM BKN035
     FM310000 26005KT P6SM BKN050=



000
FTUS41 KPBZ 300600 AAA
TAFAGC
TAF AMD
KAGC 300645Z 3007/3106 22012G24KT P6SM BKN025
      TEMPO 3007/3009 6SM -SHRASN
     FM301000 25012G22KT P6SM BKN022
     FM301300 27012G22KT P6SM SCT035
     FM310000 26005KT P6SM BKN050=



000
FTUS41 KPBZ 300600 AAA
TAFAGC
TAF AMD
KAGC 300645Z 3007/3106 22012G24KT P6SM BKN025
      TEMPO 3007/3009 6SM -SHRASN
     FM301000 25012G22KT P6SM BKN022
     FM301300 27012G22KT P6SM SCT035
     FM310000 26005KT P6SM BKN050=



000
FTUS41 KPBZ 300600 AAA
TAFZZV
TAF AMD
KZZV 300645Z 3007/3106 25012G24KT P6SM BKN025
     FM301100 27012G22KT P6SM SCT035
     FM310000 26005KT P6SM BKN050=



000
FTUS41 KPBZ 300600 AAA
TAFZZV
TAF AMD
KZZV 300645Z 3007/3106 25012G24KT P6SM BKN025
     FM301100 27012G22KT P6SM SCT035
     FM310000 26005KT P6SM BKN050=



000
FTUS41 KPBZ 300600 AAA
TAFPIT
TAF AMD
KPIT 300643Z 3007/3112 22012G24KT P6SM BKN025
      TEMPO 3007/3008 6SM -SHRASN
     FM301000 25012G22KT P6SM BKN022
     FM301300 27012G22KT P6SM SCT035
     FM310000 26005KT P6SM BKN050=



000
FTUS41 KPBZ 300600 AAA
TAFPIT
TAF AMD
KPIT 300643Z 3007/3112 22012G24KT P6SM BKN025
      TEMPO 3007/3008 6SM -SHRASN
     FM301000 25012G22KT P6SM BKN022
     FM301300 27012G22KT P6SM SCT035
     FM310000 26005KT P6SM BKN050=



000
FTUS41 KPBZ 300600 AAA
TAFHLG
TAF AMD
KHLG 300617Z 3006/3106 22012G24KT P6SM BKN025
      TEMPO 3007/3008 6SM -SHRASN
     FM301000 25012G22KT P6SM BKN025
     FM301200 27012G22KT P6SM SCT035
     FM310000 26005KT P6SM BKN050=



000
FTUS41 KPBZ 300600 AAA
TAFHLG
TAF AMD
KHLG 300617Z 3006/3106 22012G24KT P6SM BKN025
      TEMPO 3007/3008 6SM -SHRASN
     FM301000 25012G22KT P6SM BKN025
     FM301200 27012G22KT P6SM SCT035
     FM310000 26005KT P6SM BKN050=



000
FTUS41 KPBZ 300500
TAFPIT
TAF
KPIT 300524Z 3006/3112 23012G20KT P6SM SCT025 BKN035
      TEMPO 3006/3008 6SM -SHRASN
     FM301000 25012G22KT P6SM BKN025
     FM301300 27012G22KT P6SM SCT035
     FM310000 26005KT P6SM BKN050=



000
FTUS41 KPBZ 300500
TAFBVI
TAF
KBVI 300524Z 3006/3106 23012G20KT P6SM SCT025 BKN035
      TEMPO 3006/3008 6SM -SHRASN
     FM301000 25012G22KT P6SM BKN025
     FM301300 27012G22KT P6SM SCT035
     FM310000 26005KT P6SM BKN050
      AMD NOT SKED=



000
FTUS41 KPBZ 300500
TAFLBE
TAF
KLBE 300524Z 3006/3106 19007KT P6SM BKN045
     FM300700 23012G22KT P6SM SCT025 BKN035
      TEMPO 3007/3010 6SM -SHRASN
     FM301100 25012G22KT P6SM BKN025
     FM301400 27012G22KT P6SM BKN035
     FM310000 26005KT P6SM BKN050=



000
FTUS41 KPBZ 300500
TAFDUJ
TAF
KDUJ 300524Z 3006/3106 21012G22KT P6SM SCT008 BKN015
      TEMPO 3006/3008 2SM -SHSN BKN008
     FM300800 25010G18KT P6SM BKN015
     FM301100 27012KT P6SM BKN025
     FM301600 27012G22KT P6SM BKN035
     FM310000 25006KT P6SM BKN050=



000
FTUS41 KPBZ 300500
TAFMGW
TAF
KMGW 300524Z 3006/3106 23010G18KT P6SM SCT025 BKN035
      TEMPO 3006/3010 6SM -SHRASN
     FM301000 25010G18KT P6SM BKN025
     FM301400 27010G20KT P6SM SCT035
     FM310000 26005KT P6SM BKN050=



000
FTUS41 KPBZ 300500
TAFHLG
TAF
KHLG 300524Z 3006/3106 24012G22KT P6SM SCT025 BKN035
      TEMPO 3006/3008 6SM -SHRASN
     FM301000 25012G22KT P6SM BKN025
     FM301200 27012G22KT P6SM SCT035
     FM310000 26005KT P6SM BKN050=



000
FTUS41 KPBZ 300500
TAFAGC
TAF
KAGC 300524Z 3006/3106 23012G20KT P6SM SCT025 BKN035
      TEMPO 3006/3008 6SM -SHRASN
     FM301000 25012G22KT P6SM BKN025
     FM301300 27012G22KT P6SM SCT035
     FM310000 26005KT P6SM BKN050=



000
FTUS41 KPBZ 300500
TAFZZV
TAF
KZZV 300524Z 3006/3106 23010G18KT P6SM SCT025 BKN035
      TEMPO 3006/3008 6SM -SHRASN
     FM300800 25012G22KT P6SM BKN025
     FM301100 27012G22KT P6SM SCT035
     FM310000 26005KT P6SM BKN050=



000
FTUS41 KPBZ 300500
TAFPIT
TAF
KPIT 300524Z 3006/3112 23012G20KT P6SM SCT025 BKN035
      TEMPO 3006/3008 6SM -SHRASN
     FM301000 25012G22KT P6SM BKN025
     FM301300 27012G22KT P6SM SCT035
     FM310000 26005KT P6SM BKN050=



000
FTUS41 KPBZ 300500
TAFBVI
TAF
KBVI 300524Z 3006/3106 23012G20KT P6SM SCT025 BKN035
      TEMPO 3006/3008 6SM -SHRASN
     FM301000 25012G22KT P6SM BKN025
     FM301300 27012G22KT P6SM SCT035
     FM310000 26005KT P6SM BKN050
      AMD NOT SKED=



000
FTUS41 KPBZ 300500
TAFZZV
TAF
KZZV 300524Z 3006/3106 23010G18KT P6SM SCT025 BKN035
      TEMPO 3006/3008 6SM -SHRASN
     FM300800 25012G22KT P6SM BKN025
     FM301100 27012G22KT P6SM SCT035
     FM310000 26005KT P6SM BKN050=



000
FTUS41 KPBZ 300500
TAFHLG
TAF
KHLG 300524Z 3006/3106 24012G22KT P6SM SCT025 BKN035
      TEMPO 3006/3008 6SM -SHRASN
     FM301000 25012G22KT P6SM BKN025
     FM301200 27012G22KT P6SM SCT035
     FM310000 26005KT P6SM BKN050=



000
FTUS41 KPBZ 300500
TAFDUJ
TAF
KDUJ 300524Z 3006/3106 21012G22KT P6SM SCT008 BKN015
      TEMPO 3006/3008 2SM -SHSN BKN008
     FM300800 25010G18KT P6SM BKN015
     FM301100 27012KT P6SM BKN025
     FM301600 27012G22KT P6SM BKN035
     FM310000 25006KT P6SM BKN050=



000
FTUS41 KPBZ 300500
TAFMGW
TAF
KMGW 300524Z 3006/3106 23010G18KT P6SM SCT025 BKN035
      TEMPO 3006/3010 6SM -SHRASN
     FM301000 25010G18KT P6SM BKN025
     FM301400 27010G20KT P6SM SCT035
     FM310000 26005KT P6SM BKN050=



000
FTUS41 KPBZ 300500
TAFAGC
TAF
KAGC 300524Z 3006/3106 23012G20KT P6SM SCT025 BKN035
      TEMPO 3006/3008 6SM -SHRASN
     FM301000 25012G22KT P6SM BKN025
     FM301300 27012G22KT P6SM SCT035
     FM310000 26005KT P6SM BKN050=



000
FTUS41 KPBZ 300500
TAFLBE
TAF
KLBE 300524Z 3006/3106 19007KT P6SM BKN045
     FM300700 23012G22KT P6SM SCT025 BKN035
      TEMPO 3007/3010 6SM -SHRASN
     FM301100 25012G22KT P6SM BKN025
     FM301400 27012G22KT P6SM BKN035
     FM310000 26005KT P6SM BKN050=



000
FTUS41 KPBZ 300300 CCA
TAFLBE
TAF COR
KLBE 300317Z 3003/3024 22012G22KT 6SM -RA OVC035
      TEMPO 3003/3006 23020G30KT 4SM -SHRASN BKN030
     FM301100 27012KT P6SM BKN025
     FM301600 27012G22KT P6SM BKN035=



000
FTUS41 KPBZ 300300 CCA
TAFLBE
TAF COR
KLBE 300317Z 3003/3024 22012G22KT 6SM -RA OVC035
      TEMPO 3003/3006 23020G30KT 4SM -SHRASN BKN030
     FM301100 27012KT P6SM BKN025
     FM301600 27012G22KT P6SM BKN035=



000
FTUS41 KPBZ 300300 CCA
TAFAGC
TAF COR
KAGC 300316Z 3003/3024 22012G22KT 6SM -RA OVC035
      TEMPO 3003/3005 23020G30KT 4SM -SHRASN BKN030
     FM301000 27012KT P6SM BKN025
     FM301500 27012G22KT P6SM BKN035=



000
FTUS41 KPBZ 300300 CCA
TAFPIT
TAF COR
KPIT 300316Z 3003/3106 22012G22KT 6SM -RA OVC035
      TEMPO 3003/3005 23020G30KT 4SM -SHRASN BKN030
     FM301000 27012KT P6SM BKN025
     FM301500 27012G22KT P6SM BKN035=



000
FTUS41 KPBZ 300300 CCA
TAFAGC
TAF COR
KAGC 300316Z 3003/3024 22012G22KT 6SM -RA OVC035
      TEMPO 3003/3005 23020G30KT 4SM -SHRASN BKN030
     FM301000 27012KT P6SM BKN025
     FM301500 27012G22KT P6SM BKN035=



000
FTUS41 KPBZ 300300 CCA
TAFPIT
TAF COR
KPIT 300316Z 3003/3106 22012G22KT 6SM -RA OVC035
      TEMPO 3003/3005 23020G30KT 4SM -SHRASN BKN030
     FM301000 27012KT P6SM BKN025
     FM301500 27012G22KT P6SM BKN035=



000
FTUS41 KPBZ 300300 AAB
TAFAGC
TAF AMD
KAGC 300300Z 3003/3024 22012G22KT 6SM -RA OVC035
      TEMPO 3003/3005 23020G30KT 4SM -SHRA BKN030
     FM301000 27012KT P6SM BKN025
     FM301500 27012G22KT P6SM BKN035=



000
FTUS41 KPBZ 300300 AAB
TAFLBE
TAF AMD
KLBE 300300Z 3003/3024 22012G22KT 6SM -RA OVC035
      TEMPO 3003/3006 23020G30KT 4SM -SHRA BKN030
     FM301100 27012KT P6SM BKN025
     FM301600 27012G22KT P6SM BKN035=



000
FTUS41 KPBZ 300200 AAB
TAFPIT
TAF AMD
KPIT 300259Z 3003/3106 22012G22KT 6SM -RA OVC035
      TEMPO 3003/3005 23020G30KT 4SM -SHRA BKN030
     FM301000 27012KT P6SM BKN025
     FM301500 27012G22KT P6SM BKN035=



000
FTUS41 KPBZ 300100 AAA
TAFDUJ
TAF AMD
KDUJ 300158Z 3002/3024 20012KT P6SM OVC040
     FM300700 24012G22KT 4SM -SN OVC025
     FM301100 27012G22KT P6SM -SN OVC015
     FM301900 26012G20KT P6SM BKN035=



000
FTUS41 KPBZ 300100 AAA
TAFDUJ
TAF AMD
KDUJ 300158Z 3002/3024 20012KT P6SM OVC040
     FM300700 24012G22KT 4SM -SN OVC025
     FM301100 27012G22KT P6SM -SN OVC015
     FM301900 26012G20KT P6SM BKN035=



000
FTUS41 KPBZ 300100 AAA
TAFZZV
TAF AMD
KZZV 300152Z 3002/3024 22012G22KT 6SM -RA OVC040
     FM300800 27012KT P6SM BKN025
     FM301200 27012G22KT P6SM BKN035=



000
FTUS41 KPBZ 300100 AAA
TAFMGW
TAF AMD
KMGW 300148Z 3002/3024 15008KT P6SM SKC
     FM300300 22012KT 6SM -RA OVC040
     FM301000 27012KT P6SM BKN025
     FM301500 27012G22KT P6SM BKN035=



000
FTUS41 KPBZ 300100 AAA
TAFMGW
TAF AMD
KMGW 300148Z 3002/3024 15008KT P6SM SKC
     FM300300 22012KT 6SM -RA OVC040
     FM301000 27012KT P6SM BKN025
     FM301500 27012G22KT P6SM BKN035=



000
FTUS41 KPBZ 300100 AAA
TAFHLG
TAF AMD
KHLG 300146Z 3002/3024 22012G22KT 6SM -RA OVC040
     FM300800 27012KT P6SM BKN025
     FM301300 27012G22KT P6SM BKN035=



000
FTUS41 KPBZ 300100 AAA
TAFHLG
TAF AMD
KHLG 300146Z 3002/3024 22012G22KT 6SM -RA OVC040
     FM300800 27012KT P6SM BKN025
     FM301300 27012G22KT P6SM BKN035=



000
FTUS41 KPBZ 300100 AAA
TAFLBE
TAF AMD
KLBE 300145Z 3002/3024 19012KT P6SM BKN100
     FM300500 22012G22KT 6SM -RA OVC040
     FM301100 27012KT P6SM BKN025
     FM301600 27012G22KT P6SM BKN035=



000
FTUS41 KPBZ 300100 AAA
TAFLBE
TAF AMD
KLBE 300145Z 3002/3024 19012KT P6SM BKN100
     FM300500 22012G22KT 6SM -RA OVC040
     FM301100 27012KT P6SM BKN025
     FM301600 27012G22KT P6SM BKN035=



000
FTUS41 KPBZ 300100 AAA
TAFBVI
TAF AMD
KBVI 300144Z 3002/3024 19012KT P6SM BKN100
     FM300300 22012G22KT 6SM -RA OVC040
     FM301000 27012KT P6SM BKN025 OVC035
     FM301500 27012G22KT P6SM BKN035
      AMD NOT SKED 3002/3012=



000
FTUS41 KPBZ 300100 AAA
TAFAGC
TAF AMD
KAGC 300144Z 3002/3024 19012KT P6SM BKN100
     FM300300 22012G22KT 6SM -RA OVC040
     FM301000 27012KT P6SM BKN025 OVC035
     FM301500 27012G22KT P6SM BKN035=



000
FTUS41 KPBZ 300100 AAA
TAFAGC
TAF AMD
KAGC 300144Z 3002/3024 19012KT P6SM BKN100
     FM300300 22012G22KT 6SM -RA OVC040
     FM301000 27012KT P6SM BKN025 OVC035
     FM301500 27012G22KT P6SM BKN035=



000
FTUS41 KPBZ 300100 AAA
TAFBVI
TAF AMD
KBVI 300144Z 3002/3024 19012KT P6SM BKN100
     FM300300 22012G22KT 6SM -RA OVC040
     FM301000 27012KT P6SM BKN025 OVC035
     FM301500 27012G22KT P6SM BKN035
      AMD NOT SKED 3002/3012=



000
FTUS41 KPBZ 300100 AAA
TAFPIT
TAF AMD
KPIT 300138Z 3002/3106 19012KT P6SM BKN100
     FM300300 22012G22KT 6SM -RA OVC040
     FM301000 27012KT P6SM BKN025 OVC035
     FM301500 27012G22KT P6SM BKN035=



000
FTUS41 KPBZ 300100 AAA
TAFPIT
TAF AMD
KPIT 300138Z 3002/3106 19012KT P6SM BKN100
     FM300300 22012G22KT 6SM -RA OVC040
     FM301000 27012KT P6SM BKN025 OVC035
     FM301500 27012G22KT P6SM BKN035=



000
FTUS41 KPBZ 292300
TAFAGC
TAF
KAGC 292330Z 3000/3024 18011KT P6SM BKN100
     FM300400 21010KT 6SM -RA OVC040
     FM300600 21010KT 5SM -RA OVC025
     FM301200 26011KT P6SM BKN025 OVC035
     FM301500 26012G20KT P6SM BKN035=



000
FTUS41 KPBZ 292300
TAFMGW
TAF
KMGW 292330Z 3000/3024 18008KT P6SM SKC
     FM300500 21010KT 6SM -RA OVC040
     FM300700 21010KT 5SM -RASN OVC025
     FM301200 26011KT 6SM -RA BKN025 OVC035
     FM301700 26012G20KT P6SM BKN035=



000
FTUS41 KPBZ 292300
TAFBVI
TAF
KBVI 292330Z 3000/3024 18011KT P6SM BKN100
     FM300300 22010KT 6SM -RA OVC040
     FM300600 21010KT 5SM -RA OVC025
     FM301200 26011KT P6SM BKN025 OVC035
     FM301500 26012G20KT P6SM BKN035
      AMD NOT SKED 3002/3012=



000
FTUS41 KPBZ 292300
TAFLBE
TAF
KLBE 292330Z 3000/3024 24010KT P6SM BKN100
     FM300500 21010KT 6SM -RA OVC040
     FM300600 21010KT 5SM -RASN OVC025
     FM301200 26011KT 6SM -RA BKN025 OVC035
     FM301700 26012G20KT P6SM BKN035=



000
FTUS41 KPBZ 292300
TAFPIT
TAF
KPIT 292330Z 3000/3106 19010KT P6SM BKN100
     FM300400 22010KT 6SM -RA OVC060
     FM300600 21010KT 5SM -RA OVC025
     FM301200 26011KT P6SM BKN025 OVC035
     FM301500 26012G20KT P6SM BKN035=



000
FTUS41 KPBZ 292300
TAFZZV
TAF
KZZV 292330Z 3000/3024 17012KT P6SM OVC100
     FM300200 22010KT 6SM -RA OVC040
     FM300300 21010KT 5SM -RA OVC025
     FM300900 26011KT P6SM OVC025
     FM301500 26012G20KT P6SM SCT035=



000
FTUS41 KPBZ 292300
TAFDUJ
TAF
KDUJ 292330Z 3000/3024 20009KT P6SM SKC
     FM300400 20010KT 4SM -SN OVC025
     FM300600 21010KT 3SM -SN OVC015
     FM301200 26011KT 5SM -SN BKN015 OVC025
     FM301500 26012G20KT P6SM BKN025=



000
FTUS41 KPBZ 292300
TAFHLG
TAF
KHLG 292330Z 3000/3024 18012KT P6SM SKC
     FM300300 22010KT 6SM -RA OVC040
     FM300500 21010KT 5SM -RA OVC025
     FM301100 26011KT P6SM BKN025 OVC035
     FM301500 26012G20KT P6SM BKN035=



000
FTUS41 KPBZ 292100 AAA
TAFHLG
TAF AMD
KHLG 292149Z 2922/3018 19010G18KT P6SM BKN150
     FM300300 22010KT 6SM -RA OVC040
     FM300600 21010KT 5SM -RA OVC025
     FM301200 26011KT P6SM BKN025 OVC035
     FM301500 26012G20KT P6SM BKN035=



000
FTUS41 KPBZ 292000 AAA
TAFPIT
TAF AMD
KPIT 292058Z 2921/3024 20008G16KT P6SM BKN150
     FM300300 22010KT 6SM -RA OVC060
     FM300600 21010KT 5SM -RA OVC025
     FM301200 26011KT P6SM BKN025 OVC035
     FM301500 26012G20KT P6SM BKN035=



000
FTUS41 KPBZ 292000 AAA
TAFPIT
TAF AMD
KPIT 292058Z 2921/3024 20008G16KT P6SM BKN150
     FM300300 22010KT 6SM -RA OVC060
     FM300600 21010KT 5SM -RA OVC025
     FM301200 26011KT P6SM BKN025 OVC035
     FM301500 26012G20KT P6SM BKN035=



000
FTUS41 KPBZ 292000 AAA
TAFZZV
TAF AMD
KZZV 292005Z 2920/3018 19011G20KT P6SM BKN150
     FM300100 22010KT 6SM -RA OVC040
     FM300300 21010KT 5SM -RA OVC025
     FM300900 26011KT P6SM OVC025
     FM301500 26012G20KT P6SM SCT035=



000
FTUS41 KPBZ 292000 AAA
TAFZZV
TAF AMD
KZZV 292005Z 2920/3018 19011G20KT P6SM BKN150
     FM300100 22010KT 6SM -RA OVC040
     FM300300 21010KT 5SM -RA OVC025
     FM300900 26011KT P6SM OVC025
     FM301500 26012G20KT P6SM SCT035=



000
FTUS41 KPBZ 292000 AAA
TAFBVI
TAF AMD
KBVI 292004Z 2920/3018 20010G18KT P6SM SKC
     FM300300 22010KT 6SM -RA OVC040
     FM300600 21010KT 5SM -RA OVC025
     FM301200 26011KT P6SM BKN025 OVC035
     FM301500 26012G20KT P6SM BKN035=



000
FTUS41 KPBZ 291900 AAA
TAFDUJ
TAF AMD
KDUJ 291908Z 2919/3018 23010G18KT P6SM SKC
     FM300400 20010KT 4SM -SN OVC025
     FM300600 21010KT 3SM -SN OVC015
     FM301200 26011KT 5SM -SN BKN015 OVC025
     FM301500 26012G20KT P6SM BKN025=



000
FTUS41 KPBZ 291700
TAFDUJ
TAF
KDUJ 291731Z 2918/3018 26006KT P6SM FEW150
     FM300400 20010KT 4SM -SN OVC025
     FM300600 21010KT 3SM -SN OVC015
     FM301200 26011KT 5SM -SN BKN015 OVC025
     FM301500 26012G20KT P6SM BKN025=



000
FTUS41 KPBZ 291700
TAFHLG
TAF
KHLG 291731Z 2918/3018 21010KT P6SM FEW150
     FM300300 22010KT 6SM -RA OVC040
     FM300600 21010KT 5SM -RA OVC025
     FM301200 26011KT P6SM BKN025 OVC035
     FM301500 26012G20KT P6SM BKN035=



000
FTUS41 KPBZ 291700
TAFDUJ
TAF
KDUJ 291731Z 2918/3018 26006KT P6SM FEW150
     FM300400 20010KT 4SM -SN OVC025
     FM300600 21010KT 3SM -SN OVC015
     FM301200 26011KT 5SM -SN BKN015 OVC025
     FM301500 26012G20KT P6SM BKN025=



000
FTUS41 KPBZ 291700
TAFPIT
TAF
KPIT 291731Z 2918/3024 20008G16KT P6SM FEW150
     FM300300 22010KT 6SM -RA OVC040
     FM300600 21010KT 5SM -RA OVC025
     FM301200 26011KT P6SM BKN025 OVC035
     FM301500 26012G20KT P6SM BKN035=



000
FTUS41 KPBZ 291700
TAFBVI
TAF
KBVI 291731Z 2918/3018 20008KT P6SM FEW150
     FM300300 22010KT 6SM -RA OVC040
     FM300600 21010KT 5SM -RA OVC025
     FM301200 26011KT P6SM BKN025 OVC035
     FM301500 26012G20KT P6SM BKN035=



000
FTUS41 KPBZ 291700
TAFLBE
TAF
KLBE 291731Z 2918/3018 23008KT P6SM FEW150
     FM300400 21010KT 6SM -RA OVC040
     FM300700 21010KT 5SM -RASN OVC025
     FM301200 26011KT 6SM -RA BKN025 OVC035
     FM301700 26012G20KT P6SM BKN035=



000
FTUS41 KPBZ 291700
TAFHLG
TAF
KHLG 291731Z 2918/3018 21010KT P6SM FEW150
     FM300300 22010KT 6SM -RA OVC040
     FM300600 21010KT 5SM -RA OVC025
     FM301200 26011KT P6SM BKN025 OVC035
     FM301500 26012G20KT P6SM BKN035=



000
FTUS41 KPBZ 291700
TAFAGC
TAF
KAGC 291731Z 2918/3018 18008G15KT P6SM FEW150
     FM300300 21010KT 6SM -RA OVC040
     FM300600 21010KT 5SM -RA OVC025
     FM301200 26011KT P6SM BKN025 OVC035
     FM301500 26012G20KT P6SM BKN035=



000
FTUS41 KPBZ 291700
TAFZZV
TAF
KZZV 291731Z 2918/3018 18010KT P6SM FEW150
     FM300100 22010KT 6SM -RA OVC040
     FM300300 21010KT 5SM -RA OVC025
     FM300900 26011KT P6SM OVC025
     FM301500 26012G20KT P6SM SCT035=



000
FTUS41 KPBZ 291700
TAFPIT
TAF
KPIT 291731Z 2918/3024 20008G16KT P6SM FEW150
     FM300300 22010KT 6SM -RA OVC040
     FM300600 21010KT 5SM -RA OVC025
     FM301200 26011KT P6SM BKN025 OVC035
     FM301500 26012G20KT P6SM BKN035=



000
FTUS41 KPBZ 291700
TAFMGW
TAF
KMGW 291731Z 2918/3018 23008KT P6SM FEW150
     FM300400 21010KT 6SM -RA OVC040
     FM300700 21010KT 5SM -RASN OVC025
     FM301200 26011KT 6SM -RA BKN025 OVC035
     FM301700 26012G20KT P6SM BKN035=



000
FTUS41 KPBZ 291700
TAFLBE
TAF
KLBE 291731Z 2918/3018 23008KT P6SM FEW150
     FM300400 21010KT 6SM -RA OVC040
     FM300700 21010KT 5SM -RASN OVC025
     FM301200 26011KT 6SM -RA BKN025 OVC035
     FM301700 26012G20KT P6SM BKN035=



000
FTUS41 KPBZ 291700
TAFMGW
TAF
KMGW 291731Z 2918/3018 23008KT P6SM FEW150
     FM300400 21010KT 6SM -RA OVC040
     FM300700 21010KT 5SM -RASN OVC025
     FM301200 26011KT 6SM -RA BKN025 OVC035
     FM301700 26012G20KT P6SM BKN035=



000
FTUS41 KPBZ 291700
TAFAGC
TAF
KAGC 291731Z 2918/3018 18008G15KT P6SM FEW150
     FM300300 21010KT 6SM -RA OVC040
     FM300600 21010KT 5SM -RA OVC025
     FM301200 26011KT P6SM BKN025 OVC035
     FM301500 26012G20KT P6SM BKN035=



000
FTUS41 KPBZ 291700
TAFBVI
TAF
KBVI 291731Z 2918/3018 20008KT P6SM FEW150
     FM300300 22010KT 6SM -RA OVC040
     FM300600 21010KT 5SM -RA OVC025
     FM301200 26011KT P6SM BKN025 OVC035
     FM301500 26012G20KT P6SM BKN035=



000
FTUS41 KPBZ 291700
TAFZZV
TAF
KZZV 291731Z 2918/3018 18010KT P6SM FEW150
     FM300100 22010KT 6SM -RA OVC040
     FM300300 21010KT 5SM -RA OVC025
     FM300900 26011KT P6SM OVC025
     FM301500 26012G20KT P6SM SCT035=



000
FTUS41 KPBZ 291400 AAA
TAFPIT
TAF AMD
KPIT 291453Z 2915/3018 21006KT P6SM SKC
     FM291800 20008G16KT P6SM FEW150
     FM300300 22010KT 5SM -SHRASN OVC025
     FM301200 26012KT P6SM BKN015=



000
FTUS41 KPBZ 291100
TAFMGW
TAF
KMGW 291133Z 2912/3012 19004KT P6SM SKC
     FM291800 22010KT P6SM FEW150
     FM300600 20010KT P6SM -SHRA OVC025=



000
FTUS41 KPBZ 291100
TAFHLG
TAF
KHLG 291133Z 2912/3012 20005KT P6SM SKC
     FM291800 20012G18KT P6SM FEW150
     FM300400 22010KT P6SM -SHRA OVC025=



000
FTUS41 KPBZ 291100
TAFDUJ
TAF
KDUJ 291133Z 2912/3012 26006KT P6SM SKC
     FM291800 22010G16KT P6SM FEW150
     FM300400 21010KT 5SM -SHRASN OVC025=



000
FTUS41 KPBZ 291100
TAFZZV
TAF
KZZV 291133Z 2912/3012 19003KT P6SM SKC
     FM291800 19010G18KT P6SM FEW150
     FM300300 21010KT P6SM -SHRA OVC025
     FM301000 27012KT P6SM BKN015=



000
FTUS41 KPBZ 291100
TAFLBE
TAF
KLBE 291133Z 2912/3012 21003KT P6SM SKC
     FM291800 23010KT P6SM FEW150
     FM300400 22010KT 5SM -SHRASN OVC025=



000
FTUS41 KPBZ 291100
TAFPIT
TAF
KPIT 291133Z 2912/3018 00000KT P6SM SKC
     FM291800 20008G16KT P6SM FEW150
     FM300300 22010KT 5SM -SHRASN OVC025
     FM301200 26012KT P6SM BKN015=



000
FTUS41 KPBZ 291100
TAFBVI
TAF
KBVI 291133Z 2912/3012 VRB03KT P6SM SKC
     FM291800 20010G16KT P6SM FEW150
     FM300300 22010KT 5SM -SHRASN OVC025=



000
FTUS41 KPBZ 291100
TAFAGC
TAF
KAGC 291133Z 2912/3012 22005KT P6SM SKC
     FM291800 20010G16KT P6SM FEW150
     FM300300 22010KT P6SM -SHRA OVC025=



000
FTUS41 KPBZ 291100
TAFHLG
TAF
KHLG 291133Z 2912/3012 20005KT P6SM SKC
     FM291800 20012G18KT P6SM FEW150
     FM300400 22010KT P6SM -SHRA OVC025=



000
FTUS41 KPBZ 291100
TAFZZV
TAF
KZZV 291133Z 2912/3012 19003KT P6SM SKC
     FM291800 19010G18KT P6SM FEW150
     FM300300 21010KT P6SM -SHRA OVC025
     FM301000 27012KT P6SM BKN015=



000
FTUS41 KPBZ 291100
TAFPIT
TAF
KPIT 291133Z 2912/3018 00000KT P6SM SKC
     FM291800 20008G16KT P6SM FEW150
     FM300300 22010KT 5SM -SHRASN OVC025
     FM301200 26012KT P6SM BKN015=



000
FTUS41 KPBZ 291100
TAFBVI
TAF
KBVI 291133Z 2912/3012 VRB03KT P6SM SKC
     FM291800 20010G16KT P6SM FEW150
     FM300300 22010KT 5SM -SHRASN OVC025=



000
FTUS41 KPBZ 291100
TAFDUJ
TAF
KDUJ 291133Z 2912/3012 26006KT P6SM SKC
     FM291800 22010G16KT P6SM FEW150
     FM300400 21010KT 5SM -SHRASN OVC025=



000
FTUS41 KPBZ 291100
TAFMGW
TAF
KMGW 291133Z 2912/3012 19004KT P6SM SKC
     FM291800 22010KT P6SM FEW150
     FM300600 20010KT P6SM -SHRA OVC025=



000
FTUS41 KPBZ 291100
TAFAGC
TAF
KAGC 291133Z 2912/3012 22005KT P6SM SKC
     FM291800 20010G16KT P6SM FEW150
     FM300300 22010KT P6SM -SHRA OVC025=



000
FTUS41 KPBZ 291100
TAFLBE
TAF
KLBE 291133Z 2912/3012 21003KT P6SM SKC
     FM291800 23010KT P6SM FEW150
     FM300400 22010KT 5SM -SHRASN OVC025=



000
FTUS41 KPBZ 290800 AAA
TAFPIT
TAF AMD
KPIT 290856Z 2909/3012 00000KT P6SM SKC
     FM291800 20010G16KT P6SM FEW150
     FM300300 22010KT 5SM -SHRASN OVC025=



000
FTUS41 KPBZ 290500
TAFDUJ
TAF
KDUJ 290520Z 2906/3006 VRB03KT P6SM SKC
     FM291600 22010G16KT P6SM FEW150
     FM300400 21010KT 5SM -SHRASN OVC025=



000
FTUS41 KPBZ 290500
TAFLBE
TAF
KLBE 290520Z 2906/3006 VRB03KT P6SM SKC
     FM291800 23010KT P6SM FEW150
     FM300400 22010KT 5SM -SHRASN OVC025=



000
FTUS41 KPBZ 290500
TAFLBE
TAF
KLBE 290520Z 2906/3006 VRB03KT P6SM SKC
     FM291800 23010KT P6SM FEW150
     FM300400 22010KT 5SM -SHRASN OVC025=



000
FTUS41 KPBZ 290500
TAFDUJ
TAF
KDUJ 290520Z 2906/3006 VRB03KT P6SM SKC
     FM291600 22010G16KT P6SM FEW150
     FM300400 21010KT 5SM -SHRASN OVC025=



000
FTUS41 KPBZ 290500
TAFMGW
TAF
KMGW 290520Z 2906/3006 VRB03KT P6SM SKC
     FM291600 22010KT P6SM FEW150=



000
FTUS41 KPBZ 290500
TAFZZV
TAF
KZZV 290520Z 2906/3006 VRB03KT P6SM SKC
     FM291600 19010G18KT P6SM FEW150
     FM300300 21010KT P6SM -SHRA OVC025=



000
FTUS41 KPBZ 290500
TAFBVI
TAF
KBVI 290520Z 2906/3006 VRB03KT P6SM SKC
     FM291600 20010G16KT P6SM FEW150
     FM300300 22010KT 5SM -SHRASN OVC025
      AMD NOT SKED=



000
FTUS41 KPBZ 290500
TAFAGC
TAF
KAGC 290520Z 2906/3006 VRB03KT P6SM SKC
     FM291600 20010G16KT P6SM FEW150
     FM300300 22010KT P6SM -SHRA OVC025=



000
FTUS41 KPBZ 290500
TAFMGW
TAF
KMGW 290520Z 2906/3006 VRB03KT P6SM SKC
     FM291600 22010KT P6SM FEW150=



000
FTUS41 KPBZ 290500
TAFPIT
TAF
KPIT 290520Z 2906/3012 VRB03KT P6SM SKC
     FM291800 20010G16KT P6SM FEW150
     FM300300 22010KT 5SM -SHRASN OVC025=



000
FTUS41 KPBZ 290500
TAFHLG
TAF
KHLG 290520Z 2906/3006 VRB03KT P6SM SKC
     FM291600 20010G16KT P6SM FEW150
     FM300400 22010KT P6SM -SHRA OVC025=



000
FTUS41 KPBZ 290500
TAFBVI
TAF
KBVI 290520Z 2906/3006 VRB03KT P6SM SKC
     FM291600 20010G16KT P6SM FEW150
     FM300300 22010KT 5SM -SHRASN OVC025
      AMD NOT SKED=



000
FTUS41 KPBZ 290500
TAFZZV
TAF
KZZV 290520Z 2906/3006 VRB03KT P6SM SKC
     FM291600 19010G18KT P6SM FEW150
     FM300300 21010KT P6SM -SHRA OVC025=



000
FTUS41 KPBZ 290500
TAFAGC
TAF
KAGC 290520Z 2906/3006 VRB03KT P6SM SKC
     FM291600 20010G16KT P6SM FEW150
     FM300300 22010KT P6SM -SHRA OVC025=



000
FTUS41 KPBZ 290500
TAFPIT
TAF
KPIT 290520Z 2906/3012 VRB03KT P6SM SKC
     FM291800 20010G16KT P6SM FEW150
     FM300300 22010KT 5SM -SHRASN OVC025=



000
FTUS41 KPBZ 290500
TAFHLG
TAF
KHLG 290520Z 2906/3006 VRB03KT P6SM SKC
     FM291600 20010G16KT P6SM FEW150
     FM300400 22010KT P6SM -SHRA OVC025=



000
FTUS41 KPBZ 290200 AAA
TAFPIT
TAF AMD
KPIT 290234Z 2903/3006 VRB03KT P6SM SKC
     FM291600 20010KT P6SM SCT150
     FM300400 22010KT 5SM -SHRASN OVC025=



000
FTUS41 KPBZ 290200 AAA
TAFPIT
TAF AMD
KPIT 290234Z 2903/3006 VRB03KT P6SM SKC
     FM291600 20010KT P6SM SCT150
     FM300400 22010KT 5SM -SHRASN OVC025=



000
FTUS41 KPBZ 282300
TAFLBE
TAF
KLBE 282320Z 2900/2924 VRB03KT P6SM SKC
     FM291600 20010KT P6SM SCT150=



000
FTUS41 KPBZ 282300
TAFDUJ
TAF
KDUJ 282320Z 2900/2924 VRB03KT P6SM SKC
     FM291600 22010KT P6SM SCT150=



000
FTUS41 KPBZ 282300
TAFBVI
TAF
KBVI 282320Z 2900/2924 VRB03KT P6SM SKC
     FM291600 20010KT P6SM SCT150
      AMD NOT SKED 2902/2912=



000
FTUS41 KPBZ 282300
TAFHLG
TAF
KHLG 282320Z 2900/2924 VRB03KT P6SM SKC
     FM291600 20010KT P6SM SCT150=



000
FTUS41 KPBZ 282300
TAFPIT
TAF
KPIT 282320Z 2900/3006 VRB03KT P6SM SKC
     FM291600 20010KT P6SM SCT150
     FM300400 22010KT 5SM -SHRASN OVC025=



000
FTUS41 KPBZ 282300
TAFMGW
TAF
KMGW 282320Z 2900/2924 VRB03KT P6SM SKC
     FM291600 20010KT P6SM SCT150=



000
FTUS41 KPBZ 282300
TAFAGC
TAF
KAGC 282320Z 2900/2924 VRB03KT P6SM SKC
     FM291600 20010KT P6SM SCT150=



000
FTUS41 KPBZ 282300
TAFZZV
TAF
KZZV 282320Z 2900/2924 VRB03KT P6SM SKC
     FM291600 19012KT P6SM SCT150=



000
FTUS41 KPBZ 282000 AAA
TAFPIT
TAF AMD
KPIT 282054Z 2821/2924 31012KT P6SM SCT045
     FM290100 VRB03KT P6SM SKC
     FM292100 20007KT P6SM SCT150=



000
FTUS41 KPBZ 281900 AAA
TAFLBE
TAF AMD
KLBE 281912Z 2819/2918 31012KT P6SM BKN035
     FM290000 VRB03KT P6SM SKC=



000
FTUS41 KPBZ 281900 AAA
TAFLBE
TAF AMD
KLBE 281912Z 2819/2918 31012KT P6SM BKN035
     FM290000 VRB03KT P6SM SKC=



000
FTUS41 KPBZ 281700
TAFLBE
TAF
KLBE 281720Z 2818/2918 31010KT P6SM BKN030
     FM282000 30008KT P6SM SCT035 BKN050
     FM290300 VRB03KT P6SM SKC=



000
FTUS41 KPBZ 281700
TAFAGC
TAF
KAGC 281720Z 2818/2918 31010G18KT P6SM SCT035 BKN050
     FM290300 VRB03KT P6SM SKC=



000
FTUS41 KPBZ 281700
TAFHLG
TAF
KHLG 281720Z 2818/2918 31010KT P6SM SCT035
     FM290300 VRB03KT P6SM SKC=



000
FTUS41 KPBZ 281700
TAFDUJ
TAF
KDUJ 281720Z 2818/2918 32012G20KT P6SM BKN035
     FM290300 30005KT P6SM SKC=



000
FTUS41 KPBZ 281700
TAFMGW
TAF
KMGW 281720Z 2818/2918 30005KT P6SM BKN035
     FM290300 VRB03KT P6SM SKC=



000
FTUS41 KPBZ 281700
TAFPIT
TAF
KPIT 281720Z 2818/2924 31012KT P6SM SCT035 BKN050
     FM290300 VRB03KT P6SM SKC
     FM292100 20007KT P6SM SCT150=



000
FTUS41 KPBZ 281700
TAFBVI
TAF
KBVI 281720Z 2818/2918 31010KT P6SM SCT035
     FM290300 VRB03KT P6SM SKC=



000
FTUS41 KPBZ 281700
TAFZZV
TAF
KZZV 281720Z 2818/2918 31010KT P6SM SCT035
     FM290000 VRB03KT P6SM SKC=



000
FTUS41 KPBZ 281700
TAFBVI
TAF
KBVI 281720Z 2818/2918 31010KT P6SM SCT035
     FM290300 VRB03KT P6SM SKC=



000
FTUS41 KPBZ 281700
TAFZZV
TAF
KZZV 281720Z 2818/2918 31010KT P6SM SCT035
     FM290000 VRB03KT P6SM SKC=



000
FTUS41 KPBZ 281700
TAFDUJ
TAF
KDUJ 281720Z 2818/2918 32012G20KT P6SM BKN035
     FM290300 30005KT P6SM SKC=



000
FTUS41 KPBZ 281700
TAFPIT
TAF
KPIT 281720Z 2818/2924 31012KT P6SM SCT035 BKN050
     FM290300 VRB03KT P6SM SKC
     FM292100 20007KT P6SM SCT150=



000
FTUS41 KPBZ 281700
TAFAGC
TAF
KAGC 281720Z 2818/2918 31010G18KT P6SM SCT035 BKN050
     FM290300 VRB03KT P6SM SKC=



000
FTUS41 KPBZ 281700
TAFHLG
TAF
KHLG 281720Z 2818/2918 31010KT P6SM SCT035
     FM290300 VRB03KT P6SM SKC=



000
FTUS41 KPBZ 281700
TAFMGW
TAF
KMGW 281720Z 2818/2918 30005KT P6SM BKN035
     FM290300 VRB03KT P6SM SKC=



000
FTUS41 KPBZ 281700
TAFLBE
TAF
KLBE 281720Z 2818/2918 31010KT P6SM BKN030
     FM282000 30008KT P6SM SCT035 BKN050
     FM290300 VRB03KT P6SM SKC=



000
FTUS41 KPBZ 281400 AAA
TAFPIT
TAF AMD
KPIT 281456Z 2815/2918 31012KT P6SM SCT035 BKN050
     FM290300 30003KT P6SM SKC=



000
FTUS41 KPBZ 281400 AAA
TAFPIT
TAF AMD
KPIT 281456Z 2815/2918 31012KT P6SM SCT035 BKN050
     FM290300 30003KT P6SM SKC=



000
FTUS41 KPBZ 281100
TAFPIT
TAF
KPIT 281131Z 2812/2918 32011KT P6SM SCT025
     FM281500 31011G20KT P6SM SCT035
     FM290300 30003KT P6SM SKC=



000
FTUS41 KPBZ 281100
TAFBVI
TAF
KBVI 281131Z 2812/2912 33010KT P6SM SCT025
     FM281500 31012G20KT P6SM SCT035
     FM290300 30003KT P6SM SKC=



000
FTUS41 KPBZ 281100
TAFDUJ
TAF
KDUJ 281131Z 2812/2912 31012G18KT P6SM SCT020 BKN030
     FM281800 31012G20KT P6SM SCT035
     FM290300 30005KT P6SM SKC=



000
FTUS41 KPBZ 281100
TAFHLG
TAF
KHLG 281131Z 2812/2912 30012KT P6SM SCT025
     FM281500 31012G22KT P6SM SCT035
     FM290300 30003KT P6SM SKC=



000
FTUS41 KPBZ 281100
TAFMGW
TAF
KMGW 281131Z 2812/2912 34007KT P6SM SCT025 BKN050
     FM281800 30008KT P6SM SCT035
     FM290300 32003KT P6SM SKC=



000
FTUS41 KPBZ 281100
TAFPIT
TAF
KPIT 281131Z 2812/2918 32011KT P6SM SCT025
     FM281500 31011G20KT P6SM SCT035
     FM290300 30003KT P6SM SKC=



000
FTUS41 KPBZ 281100
TAFMGW
TAF
KMGW 281131Z 2812/2912 34007KT P6SM SCT025 BKN050
     FM281800 30008KT P6SM SCT035
     FM290300 32003KT P6SM SKC=



000
FTUS41 KPBZ 281100
TAFZZV
TAF
KZZV 281131Z 2812/2912 34006KT P6SM SKC
     FM281500 33010KT P6SM SCT035
     FM290000 33005KT P6SM SKC=



000
FTUS41 KPBZ 281100
TAFLBE
TAF
KLBE 281131Z 2812/2912 31008KT P6SM SCT015 BKN030
     FM281500 31012G20KT P6SM SCT025
     FM290300 30003KT P6SM SKC=



000
FTUS41 KPBZ 281100
TAFDUJ
TAF
KDUJ 281131Z 2812/2912 31012G18KT P6SM SCT020 BKN030
     FM281800 31012G20KT P6SM SCT035
     FM290300 30005KT P6SM SKC=



000
FTUS41 KPBZ 281100
TAFHLG
TAF
KHLG 281131Z 2812/2912 30012KT P6SM SCT025
     FM281500 31012G22KT P6SM SCT035
     FM290300 30003KT P6SM SKC=



000
FTUS41 KPBZ 281100
TAFBVI
TAF
KBVI 281131Z 2812/2912 33010KT P6SM SCT025
     FM281500 31012G20KT P6SM SCT035
     FM290300 30003KT P6SM SKC=



000
FTUS41 KPBZ 281100
TAFAGC
TAF
KAGC 281131Z 2812/2912 34011KT P6SM SCT025
     FM281500 31012G20KT P6SM SCT035
     FM290300 30003KT P6SM SKC=



000
FTUS41 KPBZ 281100
TAFAGC
TAF
KAGC 281131Z 2812/2912 34011KT P6SM SCT025
     FM281500 31012G20KT P6SM SCT035
     FM290300 30003KT P6SM SKC=



000
FTUS41 KPBZ 281100
TAFLBE
TAF
KLBE 281131Z 2812/2912 31008KT P6SM SCT015 BKN030
     FM281500 31012G20KT P6SM SCT025
     FM290300 30003KT P6SM SKC=



000
FTUS41 KPBZ 281100
TAFZZV
TAF
KZZV 281131Z 2812/2912 34006KT P6SM SKC
     FM281500 33010KT P6SM SCT035
     FM290000 33005KT P6SM SKC=



000
FTUS41 KPBZ 281000 AAA
TAFHLG
TAF AMD
KHLG 281035Z 2811/2906 30012KT P6SM SCT025
     FM281800 31010KT P6SM SCT035
     FM290300 30003KT P6SM SKC=



000
FTUS41 KPBZ 281000 AAB
TAFPIT
TAF AMD
KPIT 281000Z 2810/2912 32011KT P6SM SCT025 BKN060
      TEMPO 2810/2812 -SHSN BKN025
     FM281800 31010KT P6SM SCT035
     FM290300 30003KT P6SM SKC=



000
FTUS41 KPBZ 281000 AAB
TAFPIT
TAF AMD
KPIT 281000Z 2810/2912 32011KT P6SM SCT025 BKN060
      TEMPO 2810/2812 -SHSN BKN025
     FM281800 31010KT P6SM SCT035
     FM290300 30003KT P6SM SKC=



000
FTUS41 KPBZ 280900 AAA
TAFPIT
TAF AMD
KPIT 280903Z 2809/2912 32011KT P6SM SCT025 BKN060
     FM281800 31010KT P6SM SCT035
     FM290300 30003KT P6SM SKC=



    US Dept of Commerce
    National Oceanic and Atmospheric Administration
    National Weather Service
    1325 East West Highway
    Silver Spring, MD 20910
    Page Author: NWS Internet Services Team
Disclaimer
Information Quality
Credits
Glossary
Privacy Policy
Freedom of Information Act (FOIA)
About Us
Career Opportunities